Have a Safe July 4th! 

Flight Track Log - Related Links

Times and Time Zones

All times are in EDT time to prevent confusion due to time zone crossing. See the N828AF flight status page for this flight to view local times or setup timezone preferences in your user account.

Time Position Orientation Groundspeed Altitude Reporting Facility
EDT Latitude Longitude Course Direction KTS MPH feet Rate Location/Type
Mon 07:46:27 AM 39.8667 -85.9667 360° North 226 260 2,800  Level Indianapolis TRACON
Mon 07:47:27 AM 39.9333 -85.9667 360° North 263 303 3,400 1,150 Climbing Indianapolis TRACON
Mon 07:48:27 AM 40.0000 -85.9667 360° North 260 299 5,100 1,899 Climbing Indianapolis TRACON
Mon 07:50:46 AM 40.0958 -86.1281 308° West 270 311 9,700 2,070 Climbing Chicago Center
Mon 07:51:47 AM 40.1461 -86.2014 312° West 277 319 12,000 2,341 Climbing Chicago Center
Mon 07:52:49 AM 40.2267 -86.1469 27° Northeast 284 327 14,500 2,177 Climbing Chicago Center
Mon 07:53:51 AM 40.2850 -86.0703 45° Northeast 294 338 16,500 1,902 Climbing Chicago Center
Mon 07:54:52 AM 40.3461 -85.9942 43° Northeast 300 345 18,400 1,902 Climbing Chicago Center
Mon 07:55:54 AM 40.4056 -85.9183 44° Northeast 299 344 20,400 1,210 Climbing Chicago Center
Mon 07:56:56 AM 40.4703 -85.8383 43° Northeast 317 365 20,900 290 Climbing Chicago Center
Mon 07:57:58 AM 40.5428 -85.7458 44° Northeast 358 412 21,000 49 Climbing Chicago Center
Mon 07:58:59 AM 40.6189 -85.6494 44° Northeast 377 434 21,000  Level Chicago Center
Mon 08:00:01 AM 40.7103 -85.5350 43° Northeast 380 437 21,000  Level Chicago Center
Mon 08:01:03 AM 40.7856 -85.4389 44° Northeast 379 436 21,000  Level Chicago Center
Mon 08:02:05 AM 40.8619 -85.3425 44° Northeast 381 438 21,000  Level Chicago Center
Mon 08:03:06 AM 40.9367 -85.2450 45° Northeast 380 437 21,000  Level Chicago Center
Mon 08:04:08 AM 41.0231 -85.1725 32° Northeast 384 442 21,000  Level Chicago Center
Mon 08:05:10 AM 41.1244 -85.1342 16° North 381 438 21,000  Level Chicago Center
Mon 08:06:12 AM 41.2436 -85.0867 17° North 376 433 21,000 -290 Level Chicago Center
Mon 08:07:14 AM 41.3319 -85.0203 29° Northeast 381 438 20,400 -878 Descending Chicago Center
Mon 08:08:15 AM 41.4036 -84.9211 46° Northeast 379 436 19,200 -1,220 Descending Chicago Center
Mon 08:09:17 AM 41.4747 -84.8244 46° Northeast 370 426 17,900 -1,113 Descending Chicago Center
Mon 08:10:19 AM 41.5447 -84.7311 45° Northeast 362 417 16,900 -1,258 Descending Chicago Center
Mon 08:11:21 AM 41.6122 -84.6372 46° Northeast 354 407 15,300 -1,839 Descending Chicago Center
Mon 08:12:23 AM 41.6925 -84.5269 46° Northeast 349 402 13,100 -1,694 Descending Chicago Center
Mon 08:13:25 AM 41.7617 -84.4361 44° Northeast 338 389 11,800 -916 Descending Cleveland Center
Mon 08:14:34 AM 41.8317 -84.3372 46° Northeast 306 352 11,100 -600 Descending Cleveland Center
Mon 08:15:25 AM 41.8819 -84.2706 45° Northeast 312 359 10,600 -1,151 Descending Cleveland Center
Mon 08:15:47 AM 41.9058 -84.2383 45° Northeast 307 353 9,700 -1,400 Descending Cleveland Center
Mon 08:16:25 AM 41.9281 -84.1978 54° Northeast 302 348 9,200 -590 Descending Cleveland Center
Mon 08:16:48 AM 41.9561 -84.1658 40° Northeast 274 315 9,100 -100 Descending Cleveland Center
Mon 08:17:25 AM 41.9844 -84.1228 48° Northeast 284 327 9,100  Level Cleveland Center
Mon 08:17:55 AM 42.0256 -84.0803 38° Northeast 283 326 9,100  Level Cleveland Center
Mon 08:18:25 AM 42.0428 -84.0561 46° Northeast 279 321 9,100 -984 Level Cleveland Center
Mon 08:18:56 AM 42.0758 -84.0019 51° Northeast 285 328 8,100 -1,300 Descending Cleveland Center
Mon 08:19:25 AM 42.0892 -83.9717 59° Northeast 274 315 7,800 -1,254 Descending Cleveland Center
Mon 08:20:03 AM 42.1242 -83.9175 49° Northeast 249 287 6,700 -1,818 Descending Cleveland Center
Mon 08:21:04 AM 42.1703 -83.8389 52° Northeast 259 298 4,800 -1,345 Descending Cleveland Center
Mon 08:21:59 AM 42.2114 -83.7792 47° Northeast 244 281 4,100 -362 Descending Cleveland Center
Mon 08:23:00 AM 42.2508 -83.7083 53° Northeast 235 270 4,100 -155 Level Cleveland Center
Mon 08:23:55 AM 42.2881 -83.6428 52° Northeast 236 272 3,800 -828 Descending Cleveland Center
Mon 08:24:56 AM 42.3128 -83.5736 64° Northeast 196 226 2,500 -891 Descending Cleveland Center
Mon 08:26:03 AM 42.2850 -83.5219 126° Southeast 109 125 1,900 -656 Descending Cleveland Center
Mon 08:27:04 AM 42.2539 -83.5119 167° South 106 122 1,100 -787 Descending Cleveland Center

Login

Don't have an account? Register now (free) for customized features, flight alerts, and more!